createdAt,value
2019-05-20T00:02:25.868Z,98831.94
2019-05-20T00:05:09.439Z,98834.67
2019-05-20T00:07:44.022Z,98837.48
2019-05-20T00:10:22.032Z,98840.30
2019-05-20T00:13:00.249Z,98838.49
2019-05-20T00:15:44.125Z,98839.91
2019-05-20T00:18:21.296Z,98840.38
2019-05-20T00:20:55.295Z,98835.28
2019-05-20T00:23:39.386Z,98836.45
2019-05-20T00:26:18.134Z,98836.63
2019-05-20T00:29:04.645Z,98838.07
2019-05-20T00:31:39.367Z,98840.20
2019-05-20T00:34:12.024Z,98834.81
2019-05-20T00:36:45.455Z,98832.52
2019-05-20T00:39:22.313Z,98840.77
2019-05-20T00:42:09.466Z,98841.67
2019-05-20T00:48:16.886Z,98834.16
2019-05-20T00:50:56.000Z,98834.45
2019-05-20T00:53:29.227Z,98826.89
2019-05-20T00:56:01.902Z,98834.17
2019-05-20T00:58:34.564Z,98834.81
2019-05-20T01:01:07.870Z,98845.35
2019-05-20T01:03:41.617Z,98845.36
2019-05-20T01:06:15.027Z,98845.92
2019-05-20T01:08:49.954Z,98849.06
2019-05-20T01:11:24.468Z,98852.38
2019-05-20T01:13:57.039Z,98850.30
2019-05-20T01:16:29.750Z,98852.14
2019-05-20T01:19:02.349Z,98851.58
2019-05-20T01:21:35.866Z,98857.20
2019-05-20T01:24:09.160Z,98861.56
2019-05-20T01:26:41.688Z,98861.88
2019-05-20T01:29:14.323Z,98860.72
2019-05-20T01:31:47.122Z,98864.45
2019-05-20T01:34:20.320Z,98865.51
2019-05-20T01:36:53.717Z,98857.69
2019-05-20T01:39:27.096Z,98858.83
2019-05-20T01:41:59.848Z,98854.20
2019-05-20T01:44:33.373Z,98847.83
2019-05-20T01:47:07.924Z,98846.39
2019-05-20T01:49:41.937Z,98844.94
2019-05-20T01:52:15.169Z,98850.17
2019-05-20T01:54:56.745Z,98852.00
2019-05-20T01:57:50.497Z,98854.14
2019-05-20T02:00:24.625Z,98861.19
2019-05-20T02:02:57.334Z,98859.70
2019-05-20T02:05:29.959Z,98862.70
2019-05-20T02:08:07.507Z,98866.20
2019-05-20T02:10:40.272Z,98869.98
2019-05-20T02:13:12.773Z,98869.45
2019-05-20T02:15:54.336Z,98870.50
2019-05-20T02:18:27.161Z,98866.94
2019-05-20T02:20:59.727Z,98870.67
2019-05-20T02:23:32.294Z,98871.72
2019-05-20T02:26:04.872Z,98871.13
2019-05-20T02:28:37.468Z,98869.77
2019-05-20T02:31:10.052Z,98871.23
2019-05-20T02:33:51.599Z,98875.98
2019-05-20T02:36:26.964Z,98870.48
2019-05-20T02:38:59.705Z,98868.27
2019-05-20T02:41:32.460Z,98864.54
2019-05-20T02:44:05.016Z,98865.07
2019-05-20T02:46:37.816Z,98863.77
2019-05-20T02:49:10.392Z,98864.95
2019-05-20T02:51:42.999Z,98863.65
2019-05-20T02:54:15.458Z,98860.75
2019-05-20T02:56:48.081Z,98856.16
2019-05-20T02:59:21.882Z,98852.30
2019-05-20T03:01:54.746Z,98860.97
2019-05-20T03:04:27.455Z,98860.13
2019-05-20T03:07:00.237Z,98861.78
2019-05-20T03:09:33.212Z,98862.10
2019-05-20T03:12:05.833Z,98867.02
2019-05-20T03:14:38.378Z,98870.42
2019-05-20T03:17:11.087Z,98879.41
2019-05-20T03:19:43.625Z,98877.89
2019-05-20T03:22:18.519Z,98874.00
2019-05-20T03:24:51.117Z,98875.88
2019-05-20T03:27:25.762Z,98879.25
2019-05-20T03:30:00.740Z,98873.48
2019-05-20T03:32:36.587Z,98872.76
2019-05-20T03:35:13.962Z,98876.07
2019-05-20T03:37:48.633Z,98873.97
2019-05-20T03:40:22.263Z,98878.09
2019-05-20T03:42:54.966Z,98886.61
2019-05-20T03:45:28.234Z,98879.41
2019-05-20T03:48:00.991Z,98878.69
2019-05-20T03:50:34.271Z,98881.20
2019-05-20T03:53:07.381Z,98880.70
2019-05-20T03:55:39.890Z,98883.43
2019-05-20T03:58:13.798Z,98889.95
2019-05-20T04:00:47.889Z,98895.18
2019-05-20T04:03:20.657Z,98898.86
2019-05-20T04:05:55.143Z,98899.70
2019-05-20T04:08:30.653Z,98901.25
2019-05-20T04:11:03.745Z,98896.16
2019-05-20T04:13:36.483Z,98894.55
2019-05-20T04:16:10.008Z,98894.11
2019-05-20T04:18:43.871Z,98892.79
2019-05-20T04:21:16.504Z,98894.48
2019-05-20T04:23:49.399Z,98897.64
2019-05-20T04:26:22.137Z,98896.03
2019-05-20T04:28:55.354Z,98903.19
2019-05-20T04:31:28.007Z,98903.17
2019-05-20T04:34:01.029Z,98907.36
2019-05-20T04:36:33.567Z,98906.38
2019-05-20T04:39:08.675Z,98901.25
2019-05-20T04:41:41.427Z,98907.62
2019-05-20T04:44:14.521Z,98906.97
2019-05-20T04:46:47.222Z,98903.84
2019-05-20T04:49:19.901Z,98900.20
2019-05-20T04:51:52.800Z,98901.36
2019-05-20T04:54:25.534Z,98906.36
2019-05-20T04:56:58.073Z,98906.27
2019-05-20T04:59:30.510Z,98909.20
2019-05-20T05:02:03.241Z,98913.19
2019-05-20T05:04:35.809Z,98915.61
2019-05-20T05:07:08.672Z,98915.17
2019-05-20T05:09:41.145Z,98915.98
2019-05-20T05:12:17.742Z,98916.11
2019-05-20T05:14:50.259Z,98912.77
2019-05-20T05:17:22.853Z,98911.70
2019-05-20T05:19:55.691Z,98904.45
2019-05-20T05:22:28.421Z,98910.40
2019-05-20T05:25:00.986Z,98905.36
2019-05-20T05:27:34.412Z,98906.05
2019-05-20T05:30:07.955Z,98911.70
2019-05-20T05:32:41.563Z,98914.27
2019-05-20T05:35:17.403Z,98912.98
2019-05-20T05:37:50.148Z,98912.66
2019-05-20T05:40:32.565Z,98917.30
2019-05-20T05:43:05.281Z,98912.38
2019-05-20T05:45:39.285Z,98910.93
2019-05-20T05:48:12.133Z,98911.86
2019-05-20T05:50:44.768Z,98914.97
2019-05-20T05:53:17.813Z,98913.25
2019-05-20T05:55:52.860Z,98915.67
2019-05-20T05:58:26.471Z,98915.81
2019-05-20T06:00:59.005Z,98912.19
2019-05-20T06:03:31.616Z,98916.47
2019-05-20T06:06:12.065Z,98918.59
2019-05-20T06:08:46.085Z,98917.16
2019-05-20T06:11:19.383Z,98917.04
2019-05-20T06:13:53.179Z,98917.67
2019-05-20T06:16:36.373Z,98927.06
2019-05-20T06:19:09.950Z,98932.33
2019-05-20T06:21:42.688Z,98935.34
2019-05-20T06:24:15.250Z,98931.29
2019-05-20T06:26:48.717Z,98930.88
2019-05-20T06:29:21.424Z,98932.08
2019-05-20T06:31:54.137Z,98942.42
2019-05-20T06:34:26.885Z,98944.54
2019-05-20T06:37:08.143Z,98942.51
2019-05-20T06:39:40.758Z,98948.12
2019-05-20T06:42:13.427Z,98945.62
2019-05-20T06:44:52.940Z,98949.59
2019-05-20T06:47:28.933Z,98955.16
2019-05-20T06:50:05.800Z,98957.53
2019-05-20T06:52:40.621Z,98962.49
2019-05-20T06:55:14.902Z,98962.29
2019-05-20T06:57:48.799Z,98965.97
2019-05-20T07:00:35.872Z,98969.45
2019-05-20T07:03:08.775Z,98972.92
2019-05-20T07:05:41.398Z,98974.42
2019-05-20T07:08:13.931Z,98963.41
2019-05-20T07:10:47.700Z,98970.50
2019-05-20T07:13:22.484Z,98965.80
2019-05-20T07:15:56.865Z,98964.61
2019-05-20T07:18:30.354Z,98962.44
2019-05-20T07:21:03.643Z,98965.66
2019-05-20T07:23:36.342Z,98971.73
2019-05-20T07:26:09.059Z,98974.61
2019-05-20T07:28:43.315Z,98980.22
2019-05-20T07:31:15.966Z,98985.95
2019-05-20T07:33:48.734Z,98984.70
2019-05-20T07:36:26.755Z,98976.61
2019-05-20T07:39:02.274Z,98978.55
2019-05-20T07:41:41.165Z,98977.53
2019-05-20T07:44:14.599Z,98979.89
2019-05-20T07:46:48.349Z,98984.74
2019-05-20T07:49:23.950Z,98980.84
2019-05-20T07:51:57.948Z,98981.54
2019-05-20T07:54:31.270Z,98981.14
2019-05-20T07:57:12.013Z,98983.46
2019-05-20T07:59:52.824Z,98981.45
2019-05-20T08:02:28.946Z,98983.75
2019-05-20T08:05:05.423Z,98985.41
2019-05-20T08:07:51.462Z,98982.84
2019-05-20T08:10:26.594Z,98982.61
2019-05-20T08:12:59.236Z,98981.84
2019-05-20T08:15:32.528Z,98981.94
2019-05-20T08:18:05.422Z,98989.46
2019-05-20T08:20:38.002Z,98992.66
2019-05-20T08:23:11.718Z,98996.73
2019-05-20T08:25:45.766Z,98996.33
2019-05-20T08:28:18.407Z,98995.30
2019-05-20T08:30:53.275Z,99002.58
2019-05-20T08:33:27.980Z,99000.81
2019-05-20T08:36:00.671Z,99003.33
2019-05-20T08:38:37.733Z,99005.21
2019-05-20T08:41:12.163Z,99001.28
2019-05-20T08:43:45.566Z,99004.31
2019-05-20T08:46:18.050Z,99004.57
2019-05-20T08:48:51.374Z,99003.28
2019-05-20T08:51:24.601Z,99009.82
2019-05-20T08:54:00.733Z,99007.06
2019-05-20T08:56:35.647Z,99007.48
2019-05-20T08:59:08.348Z,99012.41
2019-05-20T09:01:43.857Z,99013.20
2019-05-20T09:04:18.591Z,99014.48
2019-05-20T09:06:54.372Z,99007.98
2019-05-20T09:09:29.237Z,99006.77
2019-05-20T09:12:04.476Z,99013.70
2019-05-20T09:14:43.057Z,99010.98
2019-05-20T09:17:17.980Z,99018.27
2019-05-20T09:19:50.781Z,99013.56
2019-05-20T09:22:25.807Z,99018.00
2019-05-20T09:24:58.578Z,99021.56
2019-05-20T09:27:31.382Z,99022.66
2019-05-20T09:30:07.324Z,99024.81
2019-05-20T09:32:43.386Z,99026.48
2019-05-20T09:35:16.740Z,99022.25
2019-05-20T09:37:49.373Z,99019.88
2019-05-20T09:40:38.695Z,99020.93
2019-05-20T09:43:12.101Z,99021.12
2019-05-20T09:45:44.704Z,99022.23
2019-05-20T09:48:19.805Z,99025.27
2019-05-20T09:50:55.809Z,99027.36
2019-05-20T09:53:46.885Z,99022.31
2019-05-20T09:56:24.473Z,99029.50
2019-05-20T09:59:00.771Z,99027.09
2019-05-20T10:01:38.663Z,99019.28
2019-05-20T10:04:26.091Z,99029.80
2019-05-20T10:07:19.344Z,99040.02
2019-05-20T10:09:58.652Z,99040.48
2019-05-20T10:12:45.476Z,99036.62
2019-05-20T10:15:24.967Z,99033.84
2019-05-20T10:18:36.075Z,99038.52
2019-05-20T10:21:14.162Z,99045.00
2019-05-20T10:23:57.781Z,99046.07
2019-05-20T10:26:56.025Z,99049.17
2019-05-20T10:29:31.466Z,99046.06
2019-05-20T10:32:04.792Z,99048.80
2019-05-20T10:34:39.054Z,99047.56
2019-05-20T10:37:11.750Z,99052.34
2019-05-20T10:39:45.070Z,99055.16
2019-05-20T10:42:29.605Z,99050.77
2019-05-20T10:45:07.387Z,99049.25
2019-05-20T10:47:40.016Z,99057.22
2019-05-20T10:50:16.871Z,99053.36
2019-05-20T10:52:50.414Z,99054.44
2019-05-20T10:55:26.021Z,99055.63
2019-05-20T10:58:00.823Z,99053.12
2019-05-20T11:00:36.718Z,99054.34
2019-05-20T11:03:13.247Z,99053.80
2019-05-20T11:05:48.039Z,99057.97
2019-05-20T11:08:21.655Z,99059.27
2019-05-20T11:10:55.975Z,99061.14
2019-05-20T11:13:30.069Z,99068.17
2019-05-20T11:16:19.598Z,99068.97
2019-05-20T11:18:57.880Z,99057.42
2019-05-20T11:21:35.407Z,99066.46
2019-05-20T11:24:09.112Z,99069.56
2019-05-20T11:26:42.859Z,99077.67
2019-05-20T11:29:15.556Z,99077.58
2019-05-20T11:31:48.566Z,99079.64
2019-05-20T11:34:21.950Z,99081.02
2019-05-20T11:36:54.518Z,99081.44
2019-05-20T11:39:33.224Z,99081.06
2019-05-20T11:42:12.717Z,99082.84
2019-05-20T11:44:45.730Z,99084.87
2019-05-20T11:47:18.818Z,99085.95
2019-05-20T11:49:54.399Z,99083.85
2019-05-20T11:52:28.618Z,99083.20
2019-05-20T11:55:01.912Z,99085.38
2019-05-20T11:57:35.649Z,99088.02
2019-05-20T12:00:13.679Z,99084.48
2019-05-20T12:02:47.010Z,99086.70
2019-05-20T12:05:22.431Z,99086.52
2019-05-20T12:07:58.668Z,99086.58
2019-05-20T12:10:32.984Z,99086.52
2019-05-20T12:13:09.235Z,99080.72
2019-05-20T12:15:43.205Z,99084.13
2019-05-20T12:18:17.006Z,99083.67
2019-05-20T12:20:51.236Z,99083.00
2019-05-20T12:23:25.752Z,99080.42
2019-05-20T12:25:58.795Z,99082.75
2019-05-20T12:28:31.606Z,99082.91
2019-05-20T12:31:06.237Z,99080.78
2019-05-20T12:33:42.225Z,99078.38
2019-05-20T12:36:17.786Z,99086.05
2019-05-20T12:38:53.848Z,99084.63
2019-05-20T12:41:28.042Z,99085.77
2019-05-20T12:44:11.930Z,99082.28
2019-05-20T12:46:50.567Z,99084.58
2019-05-20T12:49:24.789Z,99086.75
2019-05-20T12:52:00.106Z,99090.59
2019-05-20T12:54:33.488Z,99095.59
2019-05-20T12:57:07.776Z,99089.58
2019-05-20T12:59:41.481Z,99086.93
2019-05-20T13:02:17.525Z,99084.56
2019-05-20T13:04:50.875Z,99083.16
2019-05-20T13:07:27.768Z,99081.27
2019-05-20T13:10:03.078Z,99081.34
2019-05-20T13:12:37.862Z,99076.87
2019-05-20T13:15:16.373Z,99076.22
2019-05-20T13:17:49.477Z,99077.34
2019-05-20T13:20:23.847Z,99070.04
2019-05-20T13:22:58.278Z,99070.04
2019-05-20T13:25:32.377Z,99074.86
2019-05-20T13:28:12.428Z,99064.05
2019-05-20T13:30:46.446Z,99069.73
2019-05-20T13:33:21.881Z,99064.33
2019-05-20T13:35:55.552Z,99059.91
2019-05-20T13:38:28.145Z,99063.91
2019-05-20T13:41:01.692Z,99066.19
2019-05-20T13:43:36.374Z,99065.46
2019-05-20T13:46:08.996Z,99064.56
2019-05-20T13:48:41.720Z,99069.28
2019-05-20T13:51:16.535Z,99064.70
2019-05-20T13:53:49.166Z,99069.73
2019-05-20T13:56:23.551Z,99070.05
2019-05-20T13:58:57.808Z,99072.92
2019-05-20T14:01:34.169Z,99071.86
2019-05-20T14:04:12.231Z,99072.13
2019-05-20T14:06:47.097Z,99071.70
2019-05-20T14:09:21.207Z,99078.80
2019-05-20T14:11:56.051Z,99069.92
2019-05-20T14:14:29.130Z,99072.63
2019-05-20T14:17:07.498Z,99072.73
2019-05-20T14:19:41.176Z,99066.29
2019-05-20T14:22:14.954Z,99067.34
2019-05-20T14:24:49.497Z,99065.67
2019-05-20T14:27:22.257Z,99067.32
2019-05-20T14:29:56.430Z,99065.48
2019-05-20T14:32:32.562Z,99065.86
2019-05-20T14:35:06.328Z,99061.61
2019-05-20T14:37:39.949Z,99057.80
2019-05-20T14:40:13.008Z,99063.23
2019-05-20T14:42:45.760Z,99059.30
2019-05-20T14:45:19.603Z,99061.70
2019-05-20T14:47:56.153Z,99063.95
2019-05-20T14:50:28.941Z,99063.69
2019-05-20T14:53:03.284Z,99063.55
2019-05-20T14:55:42.218Z,99062.66
2019-05-20T14:58:26.337Z,99064.88
2019-05-20T15:01:06.360Z,99066.34
2019-05-20T15:04:08.135Z,99065.40
2019-05-20T15:06:48.269Z,99068.17
2019-05-20T15:09:29.164Z,99067.28
2019-05-20T15:12:10.312Z,99063.36
2019-05-20T15:14:44.849Z,99067.76
2019-05-20T15:17:23.879Z,99067.47
2019-05-20T15:20:00.648Z,99067.54
2019-05-20T15:22:33.695Z,99061.52
2019-05-20T15:25:08.989Z,99079.48
2019-05-20T15:27:43.749Z,99069.41
2019-05-20T15:30:21.752Z,99065.53
2019-05-20T15:32:56.588Z,99062.95
2019-05-20T15:35:32.284Z,99067.44
2019-05-20T15:38:13.594Z,99070.40
2019-05-20T15:40:49.499Z,99072.51
2019-05-20T15:43:26.286Z,99070.91
2019-05-20T15:46:03.322Z,99070.48
2019-05-20T15:48:56.817Z,99066.95
2019-05-20T15:51:42.519Z,99069.19
2019-05-20T15:54:17.724Z,99066.03
2019-05-20T15:56:53.464Z,99064.72
2019-05-20T15:59:26.796Z,99059.09
2019-05-20T16:02:01.273Z,99067.17
2019-05-20T16:04:34.702Z,99064.63
2019-05-20T16:07:14.044Z,99067.06
2019-05-20T16:09:52.035Z,99068.41
2019-05-20T16:12:25.463Z,99069.72
2019-05-20T16:14:58.146Z,99071.53
2019-05-20T16:17:33.829Z,99065.98
2019-05-20T16:20:10.564Z,99058.60
2019-05-20T16:22:47.618Z,99061.38
2019-05-20T16:25:23.494Z,99057.86
2019-05-20T16:27:58.550Z,99056.63
2019-05-20T16:30:33.323Z,99061.78
2019-05-20T16:33:08.772Z,99060.17
2019-05-20T16:35:48.908Z,99068.05
2019-05-20T16:38:22.969Z,99074.62
2019-05-20T16:40:59.353Z,99064.73
2019-05-20T16:43:35.105Z,99067.45
2019-05-20T16:46:09.281Z,99059.38
2019-05-20T16:48:46.535Z,99056.53
2019-05-20T16:51:24.474Z,99061.67
2019-05-20T16:54:01.251Z,99061.29
2019-05-20T16:56:38.500Z,99072.30
2019-05-20T16:59:13.553Z,99070.00
2019-05-20T17:01:47.423Z,99077.72
2019-05-20T17:04:22.225Z,99072.89
2019-05-20T17:06:55.072Z,99082.70
2019-05-20T17:09:28.965Z,99075.69
2019-05-20T17:12:03.036Z,99079.77
2019-05-20T17:14:37.910Z,99084.42
2019-05-20T17:17:13.543Z,99091.67
2019-05-20T17:19:49.470Z,99093.06
2019-05-20T17:22:23.350Z,99094.30
2019-05-20T17:24:59.491Z,99093.88
2019-05-20T17:27:34.043Z,99088.93
2019-05-20T17:30:16.913Z,99087.45
2019-05-20T17:32:50.477Z,99079.81
2019-05-20T17:35:25.959Z,99078.70
2019-05-20T17:37:59.727Z,99078.58
2019-05-20T17:40:34.379Z,99076.04
2019-05-20T17:43:09.734Z,99073.81
2019-05-20T17:45:46.177Z,99078.80
2019-05-20T17:48:20.588Z,99082.31
2019-05-20T17:50:55.059Z,99080.35
2019-05-20T17:53:31.394Z,99083.61
2019-05-20T17:56:05.078Z,99085.33
2019-05-20T17:58:38.609Z,99090.74
2019-05-20T18:01:15.882Z,99096.11
2019-05-20T18:03:53.242Z,99103.49
2019-05-20T18:06:35.496Z,99118.46
2019-05-20T18:09:13.836Z,99116.98
2019-05-20T18:11:54.879Z,99120.48
2019-05-20T18:14:30.188Z,99122.83
2019-05-20T18:17:06.346Z,99133.48
2019-05-20T18:19:42.765Z,99125.58
2019-05-20T18:22:18.534Z,99127.28
2019-05-20T18:24:51.671Z,99128.73
2019-05-20T18:27:27.225Z,99127.25
2019-05-20T18:30:08.338Z,99127.59
2019-05-20T18:32:48.176Z,99125.47
2019-05-20T18:35:22.191Z,99131.11
2019-05-20T18:37:59.710Z,99129.34
2019-05-20T18:40:33.524Z,99127.83
2019-05-20T18:43:13.026Z,99127.75
2019-05-20T18:45:57.148Z,99123.86
2019-05-20T18:48:32.066Z,99126.86
2019-05-20T18:51:09.340Z,99128.27
2019-05-20T18:53:45.864Z,99123.48
2019-05-20T18:56:27.136Z,99130.22
2019-05-20T18:59:01.305Z,99127.23
2019-05-20T19:01:46.117Z,99128.83
2019-05-20T19:04:34.895Z,99130.94
2019-05-20T19:07:08.339Z,99127.53
2019-05-20T19:09:42.630Z,99130.63
2019-05-20T19:12:16.628Z,99125.81
2019-05-20T19:14:50.756Z,99125.55
2019-05-20T19:17:27.486Z,99122.84
2019-05-20T19:20:02.615Z,99126.36
2019-05-20T19:22:37.370Z,99129.56
2019-05-20T19:25:14.191Z,99128.06
2019-05-20T19:27:47.806Z,99133.08
2019-05-20T19:30:21.321Z,99136.20
2019-05-20T19:32:57.262Z,99135.72
2019-05-20T19:35:43.002Z,99134.48
2019-05-20T19:38:18.505Z,99129.63
2019-05-20T19:40:56.027Z,99132.16
2019-05-20T19:43:33.706Z,99131.27
2019-05-20T19:46:10.327Z,99134.26
2019-05-20T19:48:43.734Z,99136.98
2019-05-20T19:51:20.588Z,99141.56
2019-05-20T19:53:54.488Z,99146.13
2019-05-20T19:56:28.725Z,99147.05
2019-05-20T19:59:02.471Z,99139.40
2019-05-20T20:01:36.444Z,99144.39
2019-05-20T20:04:14.847Z,99146.23
2019-05-20T20:06:47.657Z,99149.65
2019-05-20T20:09:21.917Z,99141.06
2019-05-20T20:12:09.790Z,99147.05
2019-05-20T20:14:52.354Z,99145.92
2019-05-20T20:17:31.925Z,99145.25
2019-05-20T20:20:07.636Z,99153.66
2019-05-20T20:22:42.842Z,99158.05
2019-05-20T20:25:17.201Z,99156.70
2019-05-20T20:27:51.954Z,99166.02
2019-05-20T20:30:25.157Z,99162.14
2019-05-20T20:33:01.985Z,99162.42
2019-05-20T20:35:38.327Z,99162.36
2019-05-20T20:38:11.959Z,99165.17
2019-05-20T20:40:46.675Z,99168.75
2019-05-20T20:43:20.833Z,99165.47
2019-05-20T20:45:57.062Z,99162.64
2019-05-20T20:48:33.340Z,99170.28
2019-05-20T20:51:06.119Z,99173.68
2019-05-20T20:53:43.733Z,99171.53
2019-05-20T20:56:25.303Z,99170.34
2019-05-20T20:58:58.366Z,99170.59
2019-05-20T21:01:34.606Z,99168.85
2019-05-20T21:04:18.331Z,99175.30
2019-05-20T21:07:07.131Z,99177.65
2019-05-20T21:09:42.825Z,99174.25
2019-05-20T21:12:18.643Z,99172.38
2019-05-20T21:14:56.114Z,99169.61
2019-05-20T21:17:30.823Z,99175.52
2019-05-20T21:20:06.033Z,99171.53
2019-05-20T21:22:39.757Z,99170.95
2019-05-20T21:25:13.528Z,99175.48
2019-05-20T21:27:46.322Z,99173.02
2019-05-20T21:30:19.737Z,99173.41
2019-05-20T21:33:08.268Z,99174.69
2019-05-20T21:35:45.190Z,99174.01
2019-05-20T21:38:20.630Z,99172.41
2019-05-20T21:40:55.198Z,99167.39
2019-05-20T21:43:27.674Z,99162.06
2019-05-20T21:46:01.883Z,99163.74
2019-05-20T21:48:36.000Z,99164.70
2019-05-20T21:51:10.639Z,99165.38
2019-05-20T21:53:45.042Z,99167.84
2019-05-20T21:56:23.792Z,99176.44
2019-05-20T21:58:56.918Z,99168.45
2019-05-20T22:01:31.439Z,99167.94
2019-05-20T22:04:08.391Z,99170.02
2019-05-20T22:06:41.080Z,99166.38
2019-05-20T22:09:14.653Z,99162.92
2019-05-20T22:11:47.495Z,99167.17
2019-05-20T22:14:21.059Z,99166.31
2019-05-20T22:16:55.796Z,99163.03
2019-05-20T22:19:29.428Z,99162.64
2019-05-20T22:22:22.548Z,99164.56
2019-05-20T22:24:55.423Z,99163.35
2019-05-20T22:27:28.194Z,99170.67
2019-05-20T22:30:04.393Z,99165.72
2019-05-20T22:32:37.555Z,99164.46
2019-05-20T22:35:10.342Z,99154.04
2019-05-20T22:37:42.946Z,99157.21
2019-05-20T22:40:20.047Z,99162.72
2019-05-20T22:42:55.012Z,99164.00
2019-05-20T22:45:28.622Z,99164.78
2019-05-20T22:48:01.504Z,99174.99
2019-05-20T22:50:33.981Z,99170.66
2019-05-20T22:53:08.765Z,99171.81
2019-05-20T22:55:42.685Z,99170.49
2019-05-20T22:58:22.146Z,99175.63
2019-05-20T23:00:56.535Z,99184.05
2019-05-20T23:03:29.899Z,99187.34
2019-05-20T23:06:02.592Z,99181.70
2019-05-20T23:08:35.237Z,99186.23
2019-05-20T23:11:07.767Z,99186.14
2019-05-20T23:13:41.185Z,99183.92
2019-05-20T23:16:13.728Z,99177.31
2019-05-20T23:18:49.707Z,99177.79
2019-05-20T23:21:23.964Z,99179.09
2019-05-20T23:23:56.558Z,99174.24
2019-05-20T23:26:30.078Z,99171.74
2019-05-20T23:29:03.434Z,99168.84
2019-05-20T23:31:35.996Z,99180.66
2019-05-20T23:34:13.138Z,99179.57
2019-05-20T23:36:46.710Z,99182.95
2019-05-20T23:39:20.711Z,99184.21
2019-05-20T23:41:53.226Z,99190.12
2019-05-20T23:44:25.771Z,99187.30
2019-05-20T23:46:58.431Z,99187.06
2019-05-20T23:49:31.758Z,99191.56
2019-05-20T23:52:04.193Z,99190.41
2019-05-20T23:54:37.022Z,99195.19
2019-05-20T23:57:10.674Z,99193.30
2019-05-20T23:59:43.746Z,99185.20
